createdAt,value
2018-12-20T00:00:33.654Z,36.13
2018-12-20T00:03:14.331Z,35.03
2018-12-20T00:05:55.426Z,39.47
2018-12-20T00:08:30.369Z,37.40
2018-12-20T00:11:06.703Z,36.20
2018-12-20T00:13:45.511Z,35.77
2018-12-20T00:16:26.210Z,37.03
2018-12-20T00:19:04.788Z,41.17
2018-12-20T00:21:44.255Z,38.60
2018-12-20T00:24:23.400Z,36.73
2018-12-20T00:27:01.438Z,37.93
2018-12-20T00:29:38.289Z,36.17
2018-12-20T00:32:12.466Z,36.33
2018-12-20T00:34:42.535Z,35.80
2018-12-20T00:37:17.213Z,37.77
2018-12-20T00:39:55.932Z,35.20
2018-12-20T00:42:34.296Z,39.77
2018-12-20T00:45:14.108Z,39.70
2018-12-20T00:47:50.655Z,39.73
2018-12-20T00:50:19.778Z,39.73
2018-12-20T00:52:59.037Z,39.43
2018-12-20T00:55:27.943Z,43.10
2018-12-20T00:58:06.874Z,38.00
2018-12-20T01:00:45.322Z,41.00
2018-12-20T01:03:24.429Z,39.50
2018-12-20T01:06:05.014Z,37.93
2018-12-20T01:08:43.298Z,39.13
2018-12-20T01:11:22.555Z,41.67
2018-12-20T01:13:57.092Z,40.83
2018-12-20T01:16:35.305Z,37.87
2018-12-20T01:19:13.664Z,39.50
2018-12-20T01:21:52.019Z,37.97
2018-12-20T01:24:21.785Z,41.67
2018-12-20T01:27:00.436Z,43.83
2018-12-20T01:29:38.776Z,44.80
2018-12-20T01:32:15.263Z,37.93
2018-12-20T01:34:49.843Z,44.90
2018-12-20T01:37:22.423Z,44.53
2018-12-20T01:40:00.920Z,44.10
2018-12-20T01:42:39.670Z,46.60
2018-12-20T01:45:14.466Z,45.20
2018-12-20T01:47:53.402Z,43.60
2018-12-20T01:50:31.474Z,46.00
2018-12-20T01:53:09.827Z,45.60
2018-12-20T01:55:41.528Z,49.13
2018-12-20T01:58:20.059Z,48.03
2018-12-20T02:00:56.708Z,47.50
2018-12-20T02:03:31.185Z,49.23
2018-12-20T02:06:10.763Z,50.87
2018-12-20T02:08:48.827Z,49.30
2018-12-20T02:11:27.438Z,50.30
2018-12-20T02:13:57.690Z,47.60
2018-12-20T02:16:26.721Z,48.20
2018-12-20T02:18:55.409Z,47.50
2018-12-20T02:21:30.731Z,50.53
2018-12-20T02:24:09.242Z,50.07
2018-12-20T02:26:47.284Z,52.07
2018-12-20T02:29:27.833Z,51.47
2018-12-20T02:32:06.495Z,54.83
2018-12-20T02:34:35.514Z,49.57
2018-12-20T02:37:09.656Z,47.30
2018-12-20T02:39:49.089Z,55.57
2018-12-20T02:42:17.698Z,58.33
2018-12-20T02:44:52.615Z,55.73
2018-12-20T02:47:30.686Z,52.17
2018-12-20T02:50:05.307Z,49.80
2018-12-20T02:52:34.766Z,52.93
2018-12-20T02:55:09.561Z,51.97
2018-12-20T02:57:47.806Z,56.47
2018-12-20T03:00:21.886Z,53.47
2018-12-20T03:02:56.022Z,57.50
2018-12-20T03:05:30.942Z,65.17
2018-12-20T03:08:09.486Z,76.30
2018-12-20T03:10:46.587Z,62.13
2018-12-20T03:13:25.239Z,71.30
2018-12-20T03:15:59.340Z,77.83
2018-12-20T03:18:35.509Z,75.37
2018-12-20T03:21:18.086Z,102.17
2018-12-20T03:23:51.955Z,72.97
2018-12-20T03:26:26.098Z,69.03
2018-12-20T03:29:00.218Z,92.07
2018-12-20T03:31:39.315Z,78.60
2018-12-20T03:34:13.654Z,116.53
2018-12-20T03:36:51.781Z,65.67
2018-12-20T03:39:28.008Z,73.90
2018-12-20T03:42:06.961Z,99.50
2018-12-20T03:44:45.664Z,68.90
2018-12-20T03:47:17.998Z,105.70
2018-12-20T03:49:48.018Z,103.47
2018-12-20T03:52:24.090Z,100.00
2018-12-20T03:55:03.704Z,97.33
2018-12-20T03:57:38.135Z,90.03
2018-12-20T04:00:16.367Z,97.00
2018-12-20T04:02:52.886Z,75.47
2018-12-20T04:05:21.880Z,79.13
2018-12-20T04:08:00.575Z,85.57
2018-12-20T04:10:39.188Z,78.67
2018-12-20T04:13:13.471Z,77.23
2018-12-20T04:15:47.674Z,93.83
2018-12-20T04:18:21.958Z,81.17
2018-12-20T04:20:58.267Z,87.57
2018-12-20T04:23:39.104Z,75.00
2018-12-20T04:26:13.694Z,82.13
2018-12-20T04:28:48.034Z,90.20
2018-12-20T04:31:22.393Z,83.07
2018-12-20T04:33:56.997Z,93.90
2018-12-20T04:36:35.051Z,82.03
2018-12-20T04:39:13.184Z,79.83
2018-12-20T04:41:51.465Z,82.70
2018-12-20T04:44:30.798Z,92.33
2018-12-20T04:46:59.783Z,85.53
2018-12-20T04:49:40.157Z,80.77
2018-12-20T04:52:13.446Z,82.33
2018-12-20T04:54:54.666Z,83.63
2018-12-20T04:57:28.557Z,81.33
2018-12-20T05:00:02.706Z,77.37
2018-12-20T05:02:39.001Z,78.93
2018-12-20T05:05:13.482Z,71.10
2018-12-20T05:07:42.455Z,74.97
2018-12-20T05:10:24.993Z,78.53
2018-12-20T05:12:59.948Z,77.73
2018-12-20T05:15:46.166Z,87.97
2018-12-20T05:18:20.758Z,84.23
2018-12-20T05:20:52.987Z,85.40
2018-12-20T05:23:39.700Z,79.20
2018-12-20T05:26:14.454Z,82.80
2018-12-20T05:28:47.159Z,78.90
2018-12-20T05:31:22.790Z,83.37
2018-12-20T05:33:57.663Z,79.80
2018-12-20T05:36:26.718Z,77.40
2018-12-20T05:39:11.389Z,77.77
2018-12-20T05:41:46.478Z,71.37
2018-12-20T05:44:16.910Z,79.03
2018-12-20T05:46:46.180Z,78.97
2018-12-20T05:49:20.793Z,71.77
2018-12-20T05:51:55.130Z,72.63
2018-12-20T05:54:33.302Z,73.40
2018-12-20T05:57:12.253Z,77.03
2018-12-20T05:59:51.138Z,68.83
2018-12-20T06:02:28.112Z,73.00
2018-12-20T06:05:04.952Z,78.23
2018-12-20T06:07:41.141Z,74.57
2018-12-20T06:10:19.760Z,72.23
2018-12-20T06:12:49.851Z,72.70
2018-12-20T06:15:26.643Z,71.57
2018-12-20T06:18:07.537Z,69.37
2018-12-20T06:20:40.631Z,65.50
2018-12-20T06:23:14.493Z,64.53
2018-12-20T06:25:43.215Z,67.33
2018-12-20T06:28:21.778Z,68.63
2018-12-20T06:31:01.225Z,65.93
2018-12-20T06:33:38.026Z,66.97
2018-12-20T06:36:19.078Z,68.87
2018-12-20T06:38:48.094Z,63.40
2018-12-20T06:41:22.172Z,63.00
2018-12-20T06:43:58.370Z,61.93
2018-12-20T06:46:38.714Z,63.07
2018-12-20T06:49:17.129Z,60.90
2018-12-20T06:51:51.526Z,59.33
2018-12-20T06:54:32.022Z,58.77
2018-12-20T06:57:05.961Z,55.60
2018-12-20T06:59:42.907Z,56.13
2018-12-20T07:02:21.171Z,55.30
2018-12-20T07:04:52.890Z,58.37
2018-12-20T07:07:50.591Z,58.50
2018-12-20T07:10:45.896Z,49.87
2018-12-20T07:13:28.573Z,52.30
2018-12-20T07:16:16.221Z,50.80
2018-12-20T07:18:56.746Z,53.20
2018-12-20T07:21:33.155Z,51.93
2018-12-20T07:24:09.977Z,53.60
2018-12-20T07:26:51.074Z,47.30
2018-12-20T07:29:26.587Z,45.67
2018-12-20T07:32:09.402Z,47.80
2018-12-20T07:34:49.310Z,47.40
2018-12-20T07:37:32.089Z,45.43
2018-12-20T07:40:08.335Z,46.77
2018-12-20T07:42:42.288Z,47.83
2018-12-20T07:45:21.977Z,45.37
2018-12-20T07:50:52.494Z,40.03
2018-12-20T07:53:28.262Z,40.50
2018-12-20T07:56:04.102Z,40.27
2018-12-20T07:58:39.147Z,40.23
2018-12-20T08:01:11.623Z,37.33
2018-12-20T08:03:45.278Z,37.37
2018-12-20T08:06:20.919Z,37.37
2018-12-20T08:08:57.383Z,38.30
2018-12-20T08:11:35.100Z,33.80
2018-12-20T08:14:13.770Z,32.17
2018-12-20T08:16:51.538Z,31.07
2018-12-20T08:19:36.224Z,30.77
2018-12-20T08:22:08.371Z,30.17
2018-12-20T08:24:50.431Z,30.50
2018-12-20T08:27:30.192Z,34.13
2018-12-20T08:30:09.227Z,33.30
2018-12-20T08:32:48.775Z,35.47
2018-12-20T08:35:27.960Z,33.67
2018-12-20T08:38:05.217Z,33.17
2018-12-20T08:40:40.161Z,35.50
2018-12-20T08:43:15.292Z,33.80
2018-12-20T08:45:56.969Z,35.10
2018-12-20T08:48:37.375Z,31.60
2018-12-20T08:51:20.462Z,36.23
2018-12-20T08:53:54.145Z,33.27
2018-12-20T08:56:34.155Z,36.77
2018-12-20T08:59:21.916Z,40.07
2018-12-20T09:02:02.220Z,41.50
2018-12-20T09:04:33.535Z,42.03
2018-12-20T09:07:09.622Z,40.10
2018-12-20T09:09:45.828Z,37.33
2018-12-20T09:12:18.541Z,41.53
2018-12-20T09:14:54.135Z,35.60
2018-12-20T09:17:32.647Z,37.50
2018-12-20T09:20:01.780Z,39.20
2018-12-20T09:22:40.139Z,40.70
2018-12-20T09:25:14.614Z,38.17
2018-12-20T09:27:51.013Z,37.53
2018-12-20T09:30:20.477Z,37.20
2018-12-20T09:32:52.722Z,37.70
2018-12-20T09:35:27.632Z,40.03
2018-12-20T09:38:01.622Z,41.90
2018-12-20T09:40:37.243Z,35.77
2018-12-20T09:43:12.151Z,33.47
2018-12-20T09:45:49.231Z,38.47
2018-12-20T09:48:28.118Z,36.00
2018-12-20T09:51:06.899Z,33.50
2018-12-20T09:53:44.982Z,37.87
2018-12-20T09:56:28.818Z,34.27
2018-12-20T09:59:06.158Z,35.67
2018-12-20T10:01:45.079Z,32.43
2018-12-20T10:07:12.861Z,30.70
2018-12-20T10:09:49.944Z,33.13
2018-12-20T10:12:23.931Z,31.23
2018-12-20T10:14:58.214Z,28.67
2018-12-20T10:17:36.517Z,32.10
2018-12-20T10:20:14.569Z,30.13
2018-12-20T10:22:54.013Z,29.97
2018-12-20T10:25:35.483Z,30.03
2018-12-20T10:28:11.362Z,27.77
2018-12-20T10:30:45.817Z,23.67
2018-12-20T10:33:22.241Z,25.83
2018-12-20T10:35:56.201Z,24.43
2018-12-20T10:38:30.427Z,26.57
2018-12-20T10:41:04.606Z,23.17
2018-12-20T10:43:43.003Z,21.00
2018-12-20T10:46:18.120Z,27.73
2018-12-20T10:48:54.643Z,25.33
2018-12-20T10:51:33.128Z,32.30
2018-12-20T10:54:07.869Z,20.30
2018-12-20T10:56:48.274Z,17.83
2018-12-20T10:59:24.926Z,21.17
2018-12-20T11:02:08.185Z,20.87
2018-12-20T11:04:51.515Z,19.87
2018-12-20T11:07:33.282Z,19.53
2018-12-20T11:10:14.931Z,16.20
2018-12-20T11:12:51.701Z,17.73
2018-12-20T11:15:25.728Z,18.87
2018-12-20T11:18:01.824Z,14.53
2018-12-20T11:20:36.601Z,16.30
2018-12-20T11:23:10.720Z,16.83
2018-12-20T11:25:49.646Z,16.73
2018-12-20T11:28:27.540Z,17.27
2018-12-20T11:31:03.932Z,15.87
2018-12-20T11:33:38.522Z,13.60
2018-12-20T11:36:17.306Z,15.00
2018-12-20T11:38:52.767Z,14.20
2018-12-20T11:41:31.924Z,34.17
2018-12-20T11:44:10.954Z,20.70
2018-12-20T11:46:49.987Z,15.13
2018-12-20T11:49:25.297Z,15.90
2018-12-20T11:52:04.258Z,15.77
2018-12-20T11:54:39.735Z,17.47
2018-12-20T11:57:18.187Z,15.43
2018-12-20T11:59:50.578Z,19.70
2018-12-20T12:02:29.327Z,16.23
2018-12-20T12:05:10.658Z,14.63
2018-12-20T12:07:45.355Z,13.17
2018-12-20T12:10:20.504Z,13.23
2018-12-20T12:13:00.323Z,13.10
2018-12-20T12:15:39.420Z,13.70
2018-12-20T12:18:17.351Z,10.20
2018-12-20T12:20:55.952Z,10.90
2018-12-20T12:23:34.871Z,8.13
2018-12-20T12:26:11.418Z,9.17
2018-12-20T12:28:49.485Z,7.13
2018-12-20T12:31:27.391Z,7.60
2018-12-20T12:34:03.727Z,6.07
2018-12-20T12:36:37.953Z,9.40
2018-12-20T12:39:15.101Z,5.47
2018-12-20T12:41:50.103Z,5.50
2018-12-20T12:44:24.834Z,5.20
2018-12-20T12:47:01.518Z,6.73
2018-12-20T12:49:36.312Z,6.57
2018-12-20T12:52:14.797Z,6.00
2018-12-20T12:54:52.662Z,6.83
2018-12-20T12:57:33.532Z,5.73
2018-12-20T13:00:12.810Z,7.27
2018-12-20T13:02:51.239Z,4.83
2018-12-20T13:05:27.534Z,9.57
2018-12-20T13:08:03.957Z,7.30
2018-12-20T13:10:38.106Z,8.90
2018-12-20T13:13:14.693Z,10.23
2018-12-20T13:15:53.629Z,5.90
2018-12-20T13:18:31.817Z,5.57
2018-12-20T13:21:10.282Z,8.13
2018-12-20T13:23:53.520Z,4.40
2018-12-20T13:26:32.241Z,6.00
2018-12-20T13:29:11.751Z,5.33
2018-12-20T13:31:49.867Z,12.10
2018-12-20T13:34:29.756Z,7.37
2018-12-20T13:37:15.625Z,8.50
2018-12-20T13:39:43.429Z,6.77
2018-12-20T13:42:18.714Z,6.30
2018-12-20T13:44:54.018Z,6.37
2018-12-20T13:47:28.648Z,6.73
2018-12-20T13:50:01.798Z,7.80
2018-12-20T13:52:49.835Z,9.70
2018-12-20T13:55:25.764Z,6.63
2018-12-20T13:58:03.316Z,7.50
2018-12-20T14:00:39.187Z,6.80
2018-12-20T14:03:19.344Z,6.13
2018-12-20T14:05:59.797Z,7.17
2018-12-20T14:08:38.388Z,5.43
2018-12-20T14:11:13.394Z,7.80
2018-12-20T14:13:48.809Z,5.80
2018-12-20T14:16:28.488Z,6.00
2018-12-20T14:19:10.201Z,6.00
2018-12-20T14:21:50.624Z,5.33
2018-12-20T14:24:28.692Z,5.20
2018-12-20T14:27:05.426Z,5.00
2018-12-20T14:29:38.312Z,4.97
2018-12-20T14:32:16.638Z,5.63
2018-12-20T14:34:54.439Z,4.90
2018-12-20T14:37:28.845Z,8.10
2018-12-20T14:40:06.696Z,5.00
2018-12-20T14:42:41.903Z,5.93
2018-12-20T14:45:18.666Z,4.47
2018-12-20T14:47:55.440Z,6.37
2018-12-20T14:50:34.966Z,8.43
2018-12-20T14:53:11.990Z,8.27
2018-12-20T14:55:51.082Z,6.20
2018-12-20T14:58:29.645Z,7.87
2018-12-20T15:01:14.640Z,7.60
2018-12-20T15:03:52.076Z,6.00
2018-12-20T15:06:35.936Z,7.60
2018-12-20T15:09:18.207Z,6.33
2018-12-20T15:11:54.026Z,10.13
2018-12-20T15:14:35.150Z,9.87
2018-12-20T15:17:17.497Z,9.93
2018-12-20T15:19:58.702Z,8.63
2018-12-20T15:22:32.908Z,10.80
2018-12-20T15:25:11.475Z,14.10
2018-12-20T15:27:49.849Z,12.17
2018-12-20T15:30:28.247Z,20.33
2018-12-20T15:33:05.307Z,16.97
2018-12-20T15:35:41.148Z,10.10
2018-12-20T15:38:18.214Z,18.03
2018-12-20T15:40:52.866Z,11.50
2018-12-20T15:43:32.381Z,11.33
2018-12-20T15:46:08.534Z,13.37
2018-12-20T15:48:47.238Z,11.30
2018-12-20T15:51:32.018Z,13.87
2018-12-20T15:54:10.159Z,11.70
2018-12-20T15:56:48.276Z,11.47
2018-12-20T15:59:27.403Z,15.63
2018-12-20T16:02:06.010Z,12.50
2018-12-20T16:04:44.458Z,12.50
2018-12-20T16:07:19.025Z,12.10
2018-12-20T16:09:53.017Z,12.37
2018-12-20T16:12:31.149Z,13.63
2018-12-20T16:15:09.954Z,14.70
2018-12-20T16:17:48.478Z,14.53
2018-12-20T16:20:26.481Z,12.40
2018-12-20T16:23:04.703Z,12.43
2018-12-20T16:25:38.701Z,12.17
2018-12-20T16:28:14.394Z,13.10
2018-12-20T16:30:49.365Z,11.13
2018-12-20T16:33:27.210Z,13.77
2018-12-20T16:36:05.522Z,16.80
2018-12-20T16:38:39.893Z,20.90
2018-12-20T16:41:24.634Z,14.17
2018-12-20T16:44:03.995Z,15.27
2018-12-20T16:46:36.242Z,26.20
2018-12-20T16:49:13.743Z,20.60
2018-12-20T16:52:02.507Z,24.23
2018-12-20T16:54:41.469Z,17.00
2018-12-20T16:57:21.124Z,15.47
2018-12-20T16:59:57.398Z,17.10
2018-12-20T17:02:32.195Z,16.67
2018-12-20T17:05:09.161Z,15.43
2018-12-20T17:07:46.278Z,16.93
2018-12-20T17:10:21.602Z,15.03
2018-12-20T17:12:59.974Z,18.87
2018-12-20T17:15:39.566Z,14.57
2018-12-20T17:18:19.267Z,16.50
2018-12-20T17:20:57.446Z,16.23
2018-12-20T17:23:35.670Z,17.40
2018-12-20T17:26:13.857Z,17.23
2018-12-20T17:28:49.012Z,15.53
2018-12-20T17:31:33.795Z,15.87
2018-12-20T17:34:12.003Z,14.97
2018-12-20T17:36:56.246Z,15.30
2018-12-20T17:39:36.365Z,16.30
2018-12-20T17:42:18.857Z,14.83
2018-12-20T17:44:56.942Z,13.47
2018-12-20T17:47:38.593Z,14.03
2018-12-20T17:50:13.272Z,9.10
2018-12-20T17:52:50.295Z,8.97
2018-12-20T17:55:27.837Z,12.33
2018-12-20T17:58:02.705Z,7.83
2018-12-20T18:00:41.599Z,8.03
2018-12-20T18:03:19.963Z,6.93
2018-12-20T18:05:58.001Z,8.27
2018-12-20T18:08:35.745Z,10.03
2018-12-20T18:11:14.216Z,11.33
2018-12-20T18:13:49.643Z,10.87
2018-12-20T18:16:25.036Z,11.77
2018-12-20T18:19:04.814Z,13.30
2018-12-20T18:21:43.185Z,15.93
2018-12-20T18:24:18.257Z,13.50
2018-12-20T18:26:58.798Z,14.17
2018-12-20T18:29:36.432Z,16.03
2018-12-20T18:32:17.146Z,18.53
2018-12-20T18:34:51.807Z,13.73
2018-12-20T18:37:26.424Z,15.93
2018-12-20T18:40:03.305Z,15.17
2018-12-20T18:42:38.247Z,11.53
2018-12-20T18:45:15.178Z,13.93
2018-12-20T18:47:49.983Z,12.43
2018-12-20T18:50:30.857Z,13.23
2018-12-20T18:53:09.989Z,14.30
2018-12-20T18:55:42.402Z,11.37
2018-12-20T18:58:16.580Z,11.43
2018-12-20T19:00:51.736Z,11.87
2018-12-20T19:03:27.022Z,11.33
2018-12-20T19:06:05.247Z,10.03
2018-12-20T19:08:39.847Z,10.57
2018-12-20T19:11:17.282Z,9.50
2018-12-20T19:13:51.671Z,8.00
2018-12-20T19:16:27.028Z,8.50
2018-12-20T19:19:03.864Z,8.00
2018-12-20T19:21:36.201Z,8.03
2018-12-20T19:24:12.613Z,7.17
2018-12-20T19:26:46.891Z,8.47
2018-12-20T19:29:21.290Z,9.93
2018-12-20T19:32:00.823Z,6.77
2018-12-20T19:34:37.441Z,6.80
2018-12-20T19:37:15.983Z,8.73
2018-12-20T19:39:51.874Z,8.63
2018-12-20T19:42:30.505Z,7.40
2018-12-20T19:45:07.229Z,6.20
2018-12-20T19:47:42.477Z,11.10
2018-12-20T19:50:16.575Z,7.87
2018-12-20T19:53:01.394Z,15.73
2018-12-20T19:55:43.107Z,9.50
2018-12-20T19:58:18.993Z,7.30
2018-12-20T20:00:58.164Z,8.03
2018-12-20T20:03:35.007Z,7.20
2018-12-20T20:06:10.283Z,5.47
2018-12-20T20:08:48.748Z,8.07
2018-12-20T20:11:25.603Z,10.27
2018-12-20T20:14:00.323Z,5.17
2018-12-20T20:16:36.305Z,7.47
2018-12-20T20:19:12.483Z,19.00
2018-12-20T20:21:50.858Z,8.63
2018-12-20T20:24:31.305Z,12.13
2018-12-20T20:27:08.279Z,11.13
2018-12-20T20:29:47.121Z,16.73
2018-12-20T20:32:25.658Z,10.30
2018-12-20T20:35:01.664Z,16.57
2018-12-20T20:37:39.718Z,36.87
2018-12-20T20:40:15.309Z,24.67
2018-12-20T20:42:47.804Z,33.20
2018-12-20T20:45:26.011Z,18.67
2018-12-20T20:48:04.321Z,15.97
2018-12-20T20:50:42.232Z,19.80
2018-12-20T20:53:22.784Z,8.83
2018-12-20T20:55:57.668Z,9.60
2018-12-20T20:58:35.810Z,8.93
2018-12-20T21:01:10.254Z,15.03
2018-12-20T21:03:47.729Z,12.93
2018-12-20T21:06:22.393Z,11.97
2018-12-20T21:09:04.442Z,9.10
2018-12-20T21:11:38.927Z,10.77
2018-12-20T21:14:14.895Z,8.00
2018-12-20T21:16:52.914Z,13.37
2018-12-20T21:19:28.519Z,16.30
2018-12-20T21:22:06.834Z,9.50
2018-12-20T21:24:43.011Z,10.93
2018-12-20T21:27:30.570Z,12.00
2018-12-20T21:30:06.764Z,11.00
2018-12-20T21:32:45.379Z,12.07
2018-12-20T21:35:23.370Z,8.20
2018-12-20T21:38:00.714Z,11.60
2018-12-20T21:40:35.166Z,10.53
2018-12-20T21:43:13.750Z,13.10
2018-12-20T21:45:52.716Z,11.97
2018-12-20T21:48:31.160Z,11.83
2018-12-20T21:51:05.189Z,15.93
2018-12-20T21:53:41.672Z,10.40
2018-12-20T21:56:16.141Z,8.67
2018-12-20T21:58:51.195Z,9.23
2018-12-20T22:01:25.406Z,11.20
2018-12-20T22:04:03.538Z,10.90
2018-12-20T22:06:42.289Z,8.23
2018-12-20T22:09:20.567Z,9.10
2018-12-20T22:11:55.491Z,12.17
2018-12-20T22:14:33.619Z,8.77
2018-12-20T22:17:10.767Z,9.00
2018-12-20T22:19:46.256Z,12.07
2018-12-20T22:22:24.401Z,10.07
2018-12-20T22:25:02.631Z,10.53
2018-12-20T22:27:40.766Z,8.87
2018-12-20T22:30:17.193Z,9.67
2018-12-20T22:32:53.314Z,9.57
2018-12-20T22:35:27.688Z,10.10
2018-12-20T22:38:04.995Z,8.43
2018-12-20T22:40:43.245Z,8.20
2018-12-20T22:43:19.547Z,11.33
2018-12-20T22:45:53.901Z,10.00
2018-12-20T22:48:30.117Z,7.90
2018-12-20T22:51:06.349Z,9.83
2018-12-20T22:53:40.547Z,8.23
2018-12-20T22:56:16.850Z,10.60
2018-12-20T22:58:53.281Z,9.80
2018-12-20T23:01:27.378Z,10.60
2018-12-20T23:04:05.294Z,8.57
2018-12-20T23:06:43.454Z,10.90
2018-12-20T23:09:21.861Z,8.17
2018-12-20T23:12:00.916Z,10.93
2018-12-20T23:14:39.509Z,10.33
2018-12-20T23:17:17.577Z,8.77
2018-12-20T23:19:55.722Z,9.50
2018-12-20T23:22:33.591Z,9.47
2018-12-20T23:25:11.828Z,16.33
2018-12-20T23:27:47.981Z,10.37
2018-12-20T23:30:26.074Z,10.73
2018-12-20T23:33:04.387Z,9.83
2018-12-20T23:35:42.822Z,8.50
2018-12-20T23:38:21.066Z,10.60
2018-12-20T23:40:55.553Z,7.40
2018-12-20T23:43:33.650Z,8.07
2018-12-20T23:46:11.859Z,10.07
2018-12-20T23:48:48.160Z,9.73
2018-12-20T23:51:22.330Z,9.93
2018-12-20T23:54:00.454Z,10.10
2018-12-20T23:56:34.853Z,9.90
2018-12-20T23:59:12.902Z,9.97
